< < Back
Terminal Aerodrome Forecast


Current Version              Previous Versions:   1  2  3  4  5  6  7  8  9  

Terminal Aerodrome Forecast

851
FTUS42 KGSP 202334
TAFGSP
TAF
KGSP 202334Z 2100/2124 05004KT 6SM BR OVC016
     FM210500 06003KT 3SM BR OVC015
     FM211600 06004KT P6SM SCT040 BKN060
     FM212100 08005KT P6SM BKN025=



Latest METAR

990
SAUS70 KWBC 202300 RRD
MTRGSP
METAR KGSP 202253Z 03003KT 7SM FEW009 OVC017 06/05 A3020 RMK AO2 SLP228
T00610050


USA.gov is the U.S. government's official web portal to all federal, state and local government web resources and services.